createdAt,value
2018-03-03T00:00:07.723Z,59.63
2018-03-03T00:02:36.182Z,60.63
2018-03-03T00:05:04.289Z,60.43
2018-03-03T00:07:32.105Z,63.03
2018-03-03T00:09:59.901Z,65.07
2018-03-03T00:12:28.326Z,66.37
2018-03-03T00:14:56.021Z,62.77
2018-03-03T00:17:23.671Z,63.40
2018-03-03T00:19:51.299Z,61.27
2018-03-03T00:22:24.707Z,62.67
2018-03-03T00:24:52.363Z,59.10
2018-03-03T00:27:20.214Z,63.83
2018-03-03T00:29:47.901Z,64.03
2018-03-03T00:32:15.766Z,61.17
2018-03-03T00:34:43.505Z,64.77
2018-03-03T00:37:11.128Z,66.10
2018-03-03T00:39:38.733Z,68.23
2018-03-03T00:42:06.374Z,60.40
2018-03-03T00:44:33.979Z,65.90
2018-03-03T00:47:01.666Z,63.50
2018-03-03T00:49:29.475Z,65.03
2018-03-03T00:51:57.128Z,64.20
2018-03-03T00:54:24.739Z,67.20
2018-03-03T00:56:52.368Z,67.20
2018-03-03T00:59:20.008Z,68.70
2018-03-03T01:01:47.652Z,65.40
2018-03-03T01:04:16.244Z,70.27
2018-03-03T01:06:44.800Z,70.40
2018-03-03T01:09:12.512Z,75.70
2018-03-03T01:11:40.301Z,76.57
2018-03-03T01:14:08.261Z,77.47
2018-03-03T01:16:35.950Z,79.20
2018-03-03T01:19:03.578Z,80.57
2018-03-03T01:21:31.210Z,79.63
2018-03-03T01:24:01.567Z,81.17
2018-03-03T01:26:29.339Z,81.27
2018-03-03T01:28:57.003Z,82.67
2018-03-03T01:31:24.618Z,83.73
2018-03-03T01:33:53.025Z,76.80
2018-03-03T01:36:21.430Z,75.60
2018-03-03T01:38:49.152Z,80.47
2018-03-03T01:41:16.821Z,75.27
2018-03-03T01:43:44.435Z,79.27
2018-03-03T01:46:12.178Z,79.63
2018-03-03T01:48:39.838Z,77.63
2018-03-03T01:51:07.573Z,76.57
2018-03-03T01:53:35.230Z,79.63
2018-03-03T01:56:02.928Z,78.60
2018-03-03T01:58:30.551Z,80.60
2018-03-03T02:00:58.687Z,81.13
2018-03-03T02:03:27.678Z,82.10
2018-03-03T02:05:55.620Z,77.70
2018-03-03T02:08:23.223Z,79.77
2018-03-03T02:10:51.751Z,81.00
2018-03-03T02:13:19.529Z,84.37
2018-03-03T02:15:47.551Z,81.40
2018-03-03T02:18:15.299Z,87.40
2018-03-03T02:20:43.738Z,80.40
2018-03-03T02:23:11.469Z,81.53
2018-03-03T02:25:39.124Z,85.63
2018-03-03T02:28:06.757Z,89.67
2018-03-03T02:30:35.279Z,86.37
2018-03-03T02:33:03.827Z,81.97
2018-03-03T02:35:31.529Z,84.60
2018-03-03T02:37:59.175Z,84.87
2018-03-03T02:40:26.911Z,85.83
2018-03-03T02:42:55.932Z,84.57
2018-03-03T02:45:23.566Z,86.07
2018-03-03T02:47:51.221Z,87.27
2018-03-03T02:50:19.720Z,85.73
2018-03-03T02:52:47.543Z,88.10
2018-03-03T02:55:15.218Z,88.33
2018-03-03T02:57:43.616Z,91.00
2018-03-03T03:00:12.073Z,89.23
2018-03-03T03:02:39.703Z,89.37
2018-03-03T03:05:07.376Z,90.60
2018-03-03T03:07:35.024Z,89.97
2018-03-03T03:10:03.101Z,85.47
2018-03-03T03:12:30.728Z,86.57
2018-03-03T03:14:58.407Z,89.73
2018-03-03T03:17:26.054Z,91.93
2018-03-03T03:19:53.780Z,89.37
2018-03-03T03:22:21.513Z,92.67
2018-03-03T03:24:50.035Z,86.00
2018-03-03T03:27:18.425Z,89.80
2018-03-03T03:29:46.819Z,88.70
2018-03-03T03:32:15.328Z,88.53
2018-03-03T03:34:42.944Z,90.60
2018-03-03T03:37:11.370Z,90.63
2018-03-03T03:39:39.086Z,86.27
2018-03-03T03:42:06.697Z,88.00
2018-03-03T03:44:34.346Z,88.77
2018-03-03T03:47:01.990Z,89.77
2018-03-03T03:49:30.659Z,90.47
2018-03-03T03:51:58.300Z,90.97
2018-03-03T03:54:26.706Z,87.87
2018-03-03T03:56:54.372Z,88.53
2018-03-03T03:59:22.035Z,87.13
2018-03-03T04:01:49.658Z,85.67
2018-03-03T04:04:17.315Z,86.53
2018-03-03T04:06:44.979Z,81.90
2018-03-03T04:09:12.649Z,85.27
2018-03-03T04:11:40.457Z,89.03
2018-03-03T04:14:08.060Z,85.70
2018-03-03T04:16:35.776Z,87.17
2018-03-03T04:19:03.416Z,85.17
2018-03-03T04:21:31.093Z,86.33
2018-03-03T04:23:58.812Z,83.47
2018-03-03T04:26:27.220Z,85.47
2018-03-03T04:28:54.886Z,88.77
2018-03-03T04:31:22.576Z,85.87
2018-03-03T04:33:50.189Z,83.10
2018-03-03T04:36:18.653Z,86.53
2018-03-03T04:38:47.138Z,83.97
2018-03-03T04:41:14.758Z,86.23
2018-03-03T04:43:42.419Z,87.57
2018-03-03T04:46:10.054Z,88.87
2018-03-03T04:48:37.693Z,85.07
2018-03-03T04:51:06.092Z,90.60
2018-03-03T04:53:33.756Z,84.27
2018-03-03T04:56:01.385Z,85.67
2018-03-03T05:01:45.588Z,84.60
2018-03-03T05:04:15.982Z,82.43
2018-03-03T05:07:01.987Z,84.53
2018-03-03T05:09:30.517Z,80.70
2018-03-03T05:11:58.145Z,85.20
2018-03-03T05:14:43.553Z,82.30
2018-03-03T05:20:25.424Z,100.23
2018-03-03T05:22:59.520Z,95.90
2018-03-03T05:28:36.983Z,94.27
2018-03-03T05:31:10.610Z,93.77
2018-03-03T05:33:59.835Z,94.77
2018-03-03T05:36:33.050Z,91.67
2018-03-03T05:39:06.519Z,85.63
2018-03-03T05:41:50.033Z,86.30
2018-03-03T05:44:24.056Z,82.77
2018-03-03T05:47:07.567Z,85.00
2018-03-03T05:49:41.533Z,75.70
2018-03-03T05:52:24.044Z,80.80
2018-03-03T05:54:57.464Z,80.20
2018-03-03T05:57:44.884Z,84.00
2018-03-03T06:03:26.483Z,80.10
2018-03-03T06:05:59.675Z,80.13
2018-03-03T06:08:28.718Z,80.00
2018-03-03T06:10:57.774Z,79.30
2018-03-03T06:13:25.491Z,77.20
2018-03-03T06:15:53.185Z,75.80
2018-03-03T06:18:20.929Z,80.93
2018-03-03T06:20:48.541Z,84.47
2018-03-03T06:23:16.951Z,80.17
2018-03-03T06:25:44.730Z,83.50
2018-03-03T06:28:12.379Z,80.17
2018-03-03T06:30:40.758Z,82.90
2018-03-03T06:33:08.446Z,81.30
2018-03-03T06:35:36.118Z,78.63
2018-03-03T06:38:04.366Z,76.67
2018-03-03T06:40:32.125Z,77.67
2018-03-03T06:42:59.809Z,78.03
2018-03-03T06:45:27.461Z,76.50
2018-03-03T06:47:55.103Z,76.23
2018-03-03T06:50:22.943Z,80.17
2018-03-03T06:52:51.462Z,82.53
2018-03-03T06:55:19.073Z,79.37
2018-03-03T06:57:47.982Z,79.90
2018-03-03T07:00:16.402Z,81.27
2018-03-03T07:02:44.868Z,86.17
2018-03-03T07:05:12.592Z,82.20
2018-03-03T07:07:40.293Z,82.37
2018-03-03T07:10:08.642Z,80.67
2018-03-03T07:12:37.390Z,80.20
2018-03-03T07:15:21.757Z,79.60
2018-03-03T07:17:49.446Z,84.33
2018-03-03T07:20:17.068Z,80.07
2018-03-03T07:22:45.359Z,78.13
2018-03-03T07:25:13.844Z,77.23
2018-03-03T07:27:42.254Z,79.50
2018-03-03T07:30:09.952Z,80.73
2018-03-03T07:32:37.580Z,77.47
2018-03-03T07:35:05.286Z,76.63
2018-03-03T07:37:32.928Z,80.37
2018-03-03T07:40:00.664Z,78.73
2018-03-03T07:42:28.375Z,77.47
2018-03-03T07:44:56.050Z,79.00
2018-03-03T07:47:23.729Z,77.40
2018-03-03T07:49:52.166Z,80.27
2018-03-03T07:52:20.100Z,78.43
2018-03-03T07:54:47.755Z,73.00
2018-03-03T07:57:15.491Z,75.47
2018-03-03T07:59:43.955Z,76.27
2018-03-03T08:02:11.595Z,74.73
2018-03-03T08:04:39.202Z,72.80
2018-03-03T08:07:07.710Z,74.47
2018-03-03T08:09:36.356Z,76.87
2018-03-03T08:12:04.169Z,72.23
2018-03-03T08:14:31.823Z,74.67
2018-03-03T08:17:00.870Z,75.37
2018-03-03T08:19:28.511Z,77.27
2018-03-03T08:21:56.154Z,74.30
2018-03-03T08:24:23.791Z,76.03
2018-03-03T08:26:51.495Z,75.63
2018-03-03T08:29:19.146Z,77.10
2018-03-03T08:31:46.771Z,76.63
2018-03-03T08:34:14.579Z,73.03
2018-03-03T08:36:44.562Z,71.53
2018-03-03T08:39:12.273Z,74.53
2018-03-03T08:41:40.021Z,76.77
2018-03-03T08:44:07.719Z,76.70
2018-03-03T08:46:36.154Z,74.83
2018-03-03T08:49:04.347Z,70.83
2018-03-03T08:51:31.989Z,72.77
2018-03-03T08:53:59.668Z,74.43
2018-03-03T08:56:27.388Z,72.13
2018-03-03T08:58:55.092Z,71.50
2018-03-03T09:01:22.794Z,67.93
2018-03-03T09:03:51.230Z,67.77
2018-03-03T09:06:18.939Z,71.17
2018-03-03T09:08:46.590Z,73.10
2018-03-03T09:11:15.038Z,69.40
2018-03-03T09:13:42.825Z,71.17
2018-03-03T09:16:10.533Z,72.77
2018-03-03T09:18:38.258Z,71.27
2018-03-03T09:21:06.691Z,70.90
2018-03-03T09:23:34.316Z,74.33
2018-03-03T09:26:02.918Z,70.33
2018-03-03T09:28:30.533Z,74.47
2018-03-03T09:30:59.187Z,71.00
2018-03-03T09:33:27.835Z,70.70
2018-03-03T09:35:55.500Z,73.47
2018-03-03T09:38:23.230Z,69.63
2018-03-03T09:40:51.662Z,71.53
2018-03-03T09:43:19.335Z,71.30
2018-03-03T09:45:47.629Z,72.87
2018-03-03T09:48:15.298Z,73.07
2018-03-03T09:50:42.934Z,71.60
2018-03-03T09:53:10.619Z,73.00
2018-03-03T09:55:38.614Z,70.27
2018-03-03T09:58:07.074Z,72.33
2018-03-03T10:00:34.790Z,73.30
2018-03-03T10:03:02.474Z,68.67
2018-03-03T10:05:30.742Z,71.83
2018-03-03T10:07:58.524Z,69.97
2018-03-03T10:10:26.198Z,70.77
2018-03-03T10:12:53.919Z,73.43
2018-03-03T10:15:21.660Z,70.47
2018-03-03T10:17:49.350Z,74.13
2018-03-03T10:20:17.055Z,68.20
2018-03-03T10:22:45.639Z,69.80
2018-03-03T10:25:14.273Z,67.47
2018-03-03T10:27:41.943Z,68.77
2018-03-03T10:30:09.615Z,67.57
2018-03-03T10:32:37.361Z,70.00
2018-03-03T10:35:04.973Z,66.13
2018-03-03T10:37:33.436Z,72.17
2018-03-03T10:40:01.101Z,70.23
2018-03-03T10:42:28.983Z,71.47
2018-03-03T10:44:57.388Z,68.13
2018-03-03T10:47:25.055Z,68.87
2018-03-03T10:49:52.744Z,70.10
2018-03-03T10:52:20.407Z,68.23
2018-03-03T10:54:48.132Z,67.00
2018-03-03T10:57:15.935Z,68.43
2018-03-03T10:59:43.591Z,69.20
2018-03-03T11:02:11.537Z,69.73
2018-03-03T11:04:39.525Z,67.90
2018-03-03T11:07:07.179Z,68.63
2018-03-03T11:09:34.846Z,71.90
2018-03-03T11:12:02.514Z,66.97
2018-03-03T11:14:30.213Z,69.67
2018-03-03T11:16:57.927Z,67.17
2018-03-03T11:19:25.676Z,67.07
2018-03-03T11:21:53.465Z,67.57
2018-03-03T11:24:22.797Z,68.57
2018-03-03T11:26:51.327Z,66.30
2018-03-03T11:29:19.024Z,66.53
2018-03-03T11:31:47.173Z,67.47
2018-03-03T11:34:14.905Z,65.30
2018-03-03T11:36:42.555Z,65.10
2018-03-03T11:39:10.321Z,67.20
2018-03-03T11:41:38.752Z,67.60
2018-03-03T11:44:07.238Z,69.20
2018-03-03T11:46:35.698Z,67.27
2018-03-03T11:49:03.352Z,63.47
2018-03-03T11:51:31.025Z,67.00
2018-03-03T11:53:58.771Z,66.40
2018-03-03T11:56:27.200Z,66.10
2018-03-03T11:58:55.795Z,64.23
2018-03-03T12:01:23.503Z,60.03
2018-03-03T12:03:51.154Z,64.23
2018-03-03T12:06:18.823Z,67.00
2018-03-03T12:08:46.516Z,64.17
2018-03-03T12:11:14.230Z,62.03
2018-03-03T12:13:42.841Z,60.80
2018-03-03T12:16:10.453Z,58.40
2018-03-03T12:18:38.899Z,59.97
2018-03-03T12:21:06.585Z,59.27
2018-03-03T12:23:34.228Z,59.27
2018-03-03T12:26:01.820Z,58.50
2018-03-03T12:28:29.450Z,60.60
2018-03-03T12:30:57.087Z,56.47
2018-03-03T12:33:24.750Z,58.27
2018-03-03T12:35:52.438Z,53.73
2018-03-03T12:38:20.170Z,55.43
2018-03-03T12:40:47.944Z,55.90
2018-03-03T12:43:15.576Z,52.87
2018-03-03T12:45:43.234Z,48.90
2018-03-03T12:48:11.414Z,50.37
2018-03-03T12:50:39.296Z,50.30
2018-03-03T12:53:06.897Z,44.13
2018-03-03T12:55:34.584Z,44.47
2018-03-03T12:58:03.004Z,48.10
2018-03-03T13:00:30.750Z,48.03
2018-03-03T13:02:58.375Z,44.53
2018-03-03T13:05:26.033Z,43.47
2018-03-03T13:07:53.720Z,41.73
2018-03-03T13:10:21.360Z,40.43
2018-03-03T13:12:49.867Z,40.80
2018-03-03T13:15:17.484Z,40.27
2018-03-03T13:17:45.133Z,40.43
2018-03-03T13:20:12.817Z,41.13
2018-03-03T13:22:40.471Z,41.70
2018-03-03T13:25:08.178Z,41.83
2018-03-03T13:27:35.867Z,44.37
2018-03-03T13:30:03.624Z,42.00
2018-03-03T13:32:32.500Z,43.27
2018-03-03T13:35:00.197Z,43.37
2018-03-03T13:37:27.854Z,42.43
2018-03-03T13:39:55.705Z,41.47
2018-03-03T13:42:23.321Z,42.47
2018-03-03T13:44:51.756Z,42.50
2018-03-03T13:47:23.282Z,43.10
2018-03-03T13:49:51.031Z,43.30
2018-03-03T13:52:18.821Z,44.57
2018-03-03T13:54:47.331Z,42.20
2018-03-03T13:57:15.040Z,42.20
2018-03-03T13:59:42.715Z,42.93
2018-03-03T14:02:10.366Z,43.00
2018-03-03T14:04:37.994Z,44.20
2018-03-03T14:07:05.610Z,41.30
2018-03-03T14:09:33.363Z,41.60
2018-03-03T14:12:01.817Z,40.83
2018-03-03T14:14:30.257Z,39.73
2018-03-03T14:16:57.919Z,40.63
2018-03-03T14:19:26.606Z,41.60
2018-03-03T14:21:55.496Z,41.83
2018-03-03T14:24:24.031Z,41.43
2018-03-03T14:26:51.648Z,40.27
2018-03-03T14:29:20.356Z,41.10
2018-03-03T14:31:48.016Z,40.27
2018-03-03T14:34:16.850Z,41.13
2018-03-03T14:36:44.486Z,39.10
2018-03-03T14:39:12.156Z,39.80
2018-03-03T14:41:42.824Z,40.17
2018-03-03T14:44:10.609Z,37.67
2018-03-03T14:46:38.439Z,40.77
2018-03-03T14:49:06.846Z,37.03
2018-03-03T14:51:34.513Z,37.13
2018-03-03T14:54:03.099Z,40.43
2018-03-03T14:56:31.009Z,38.73
2018-03-03T14:58:59.322Z,37.80
2018-03-03T15:01:27.807Z,41.03
2018-03-03T15:03:55.634Z,39.13
2018-03-03T15:06:23.323Z,40.97
2018-03-03T15:08:51.013Z,40.70
2018-03-03T15:11:18.677Z,40.60
2018-03-03T15:13:46.414Z,40.17
2018-03-03T15:16:14.811Z,40.23
2018-03-03T15:18:42.538Z,41.87
2018-03-03T15:21:10.206Z,42.33
2018-03-03T15:23:38.635Z,40.37
2018-03-03T15:26:06.318Z,41.57
2018-03-03T15:28:33.958Z,42.27
2018-03-03T15:31:01.630Z,41.50
2018-03-03T15:33:29.355Z,41.37
2018-03-03T15:35:57.098Z,43.87
2018-03-03T15:38:25.501Z,44.27
2018-03-03T15:40:53.250Z,44.63
2018-03-03T15:43:21.707Z,44.33
2018-03-03T15:45:49.427Z,45.70
2018-03-03T15:48:17.122Z,43.53
2018-03-03T15:50:44.799Z,46.03
2018-03-03T15:53:13.265Z,44.13
2018-03-03T15:55:40.903Z,42.23
2018-03-03T15:58:08.505Z,44.57
2018-03-03T16:00:36.955Z,43.20
2018-03-03T16:03:04.603Z,45.83
2018-03-03T16:05:32.396Z,45.70
2018-03-03T16:08:00.017Z,45.30
2018-03-03T16:10:27.874Z,44.93
2018-03-03T16:12:56.385Z,44.73
2018-03-03T16:15:24.338Z,45.53
2018-03-03T16:17:52.111Z,47.60
2018-03-03T16:20:20.511Z,46.43
2018-03-03T16:22:48.195Z,44.73
2018-03-03T16:25:15.874Z,45.97
2018-03-03T16:27:43.595Z,47.10
2018-03-03T16:30:11.264Z,46.73
2018-03-03T16:32:39.006Z,48.00
2018-03-03T16:35:07.605Z,45.57
2018-03-03T16:37:35.274Z,47.97
2018-03-03T16:40:04.652Z,47.40
2018-03-03T16:42:32.358Z,48.03
2018-03-03T16:45:00.799Z,48.47
2018-03-03T16:47:28.513Z,49.97
2018-03-03T16:49:56.236Z,50.47
2018-03-03T16:52:23.919Z,50.97
2018-03-03T16:54:51.670Z,60.60
2018-03-03T16:57:20.186Z,56.13
2018-03-03T16:59:48.021Z,54.83
2018-03-03T17:02:16.435Z,54.17
2018-03-03T17:04:44.083Z,52.53
2018-03-03T17:07:12.679Z,52.63
2018-03-03T17:09:40.397Z,55.17
2018-03-03T17:12:08.242Z,57.60
2018-03-03T17:14:36.876Z,57.50
2018-03-03T17:17:04.573Z,56.23
2018-03-03T17:19:32.255Z,58.87
2018-03-03T17:21:59.916Z,55.90
2018-03-03T17:24:28.389Z,64.17
2018-03-03T17:26:56.213Z,89.57
2018-03-03T17:29:24.196Z,88.27
2018-03-03T17:31:51.983Z,114.57
2018-03-03T17:34:19.766Z,80.23
2018-03-03T17:36:47.580Z,65.13
2018-03-03T17:39:15.489Z,65.97
2018-03-03T17:41:43.177Z,138.23
2018-03-03T17:44:11.645Z,126.57
2018-03-03T17:46:39.559Z,62.40
2018-03-03T17:49:07.283Z,54.97
2018-03-03T17:51:35.180Z,73.27
2018-03-03T17:54:03.776Z,54.70
2018-03-03T17:56:31.454Z,101.07
2018-03-03T17:58:59.107Z,110.07
2018-03-03T18:01:26.884Z,127.73
2018-03-03T18:03:54.699Z,67.17
2018-03-03T18:06:23.338Z,59.97
2018-03-03T18:08:51.133Z,59.77
2018-03-03T18:11:18.850Z,59.50
2018-03-03T18:13:47.424Z,58.03
2018-03-03T18:16:15.930Z,58.13
2018-03-03T18:18:43.624Z,56.37
2018-03-03T18:21:11.388Z,57.30
2018-03-03T18:23:39.124Z,59.37
2018-03-03T18:26:06.776Z,59.17
2018-03-03T18:28:34.557Z,60.27
2018-03-03T18:31:02.253Z,61.53
2018-03-03T18:33:30.683Z,62.73
2018-03-03T18:35:59.109Z,61.07
2018-03-03T18:38:27.512Z,63.17
2018-03-03T18:40:55.254Z,61.83
2018-03-03T18:43:24.568Z,65.40
2018-03-03T18:45:52.254Z,70.67
2018-03-03T18:48:19.873Z,70.07
2018-03-03T18:50:48.359Z,81.60
2018-03-03T18:53:16.847Z,75.20
2018-03-03T18:55:45.599Z,59.20
2018-03-03T18:58:13.422Z,64.73
2018-03-03T19:00:41.234Z,63.20
2018-03-03T19:03:09.023Z,65.50
2018-03-03T19:05:37.564Z,66.90
2018-03-03T19:08:05.196Z,64.93
2018-03-03T19:10:32.849Z,65.13
2018-03-03T19:13:00.487Z,67.57
2018-03-03T19:15:28.922Z,68.07
2018-03-03T19:17:56.962Z,67.10
2018-03-03T19:20:24.768Z,63.77
2018-03-03T19:22:52.428Z,64.77
2018-03-03T19:25:20.285Z,70.00
2018-03-03T19:27:48.036Z,64.73
2018-03-03T19:30:15.686Z,69.23
2018-03-03T19:32:43.448Z,68.30
2018-03-03T19:35:11.216Z,68.60
2018-03-03T19:37:39.031Z,88.10
2018-03-03T19:40:07.700Z,70.97
2018-03-03T19:42:35.471Z,84.47
2018-03-03T19:45:03.141Z,70.77
2018-03-03T19:47:30.927Z,76.60
2018-03-03T19:49:58.688Z,75.55
2018-03-03T19:52:26.490Z,76.63
2018-03-03T19:54:54.166Z,77.90
2018-03-03T19:57:21.860Z,84.73
2018-03-03T19:59:50.354Z,88.90
2018-03-03T20:02:18.780Z,88.03
2018-03-03T20:04:46.648Z,88.10
2018-03-03T20:07:15.102Z,85.33
2018-03-03T20:09:42.795Z,83.97
2018-03-03T20:12:10.502Z,84.00
2018-03-03T20:14:40.345Z,80.37
2018-03-03T20:17:08.087Z,78.67
2018-03-03T20:19:36.520Z,78.90
2018-03-03T20:22:04.356Z,77.60
2018-03-03T20:24:32.088Z,79.53
2018-03-03T20:27:00.545Z,79.77
2018-03-03T20:29:28.377Z,79.50
2018-03-03T20:31:56.053Z,77.47
2018-03-03T20:34:24.307Z,75.40
2018-03-03T20:36:51.998Z,74.10
2018-03-03T20:39:19.743Z,73.37
2018-03-03T20:41:47.482Z,75.07
2018-03-03T20:44:15.310Z,74.20
2018-03-03T20:46:43.079Z,79.07
2018-03-03T20:49:11.563Z,71.10
2018-03-03T20:51:39.999Z,73.07
2018-03-03T20:54:07.754Z,71.17
2018-03-03T20:56:36.312Z,70.70
2018-03-03T20:59:04.008Z,70.80
2018-03-03T21:01:31.714Z,70.57
2018-03-03T21:03:59.708Z,82.20
2018-03-03T21:06:27.464Z,73.77
2018-03-03T21:08:55.188Z,76.30
2018-03-03T21:11:29.967Z,73.97
2018-03-03T21:13:57.661Z,72.60
2018-03-03T21:16:25.385Z,69.77
2018-03-03T21:18:54.650Z,69.83
2018-03-03T21:21:23.206Z,69.47
2018-03-03T21:23:50.845Z,67.23
2018-03-03T21:26:18.503Z,71.60
2018-03-03T21:28:46.173Z,66.77
2018-03-03T21:31:13.825Z,64.57
2018-03-03T21:33:42.992Z,65.57
2018-03-03T21:36:10.714Z,65.40
2018-03-03T21:38:38.500Z,65.10
2018-03-03T21:41:06.180Z,65.00
2018-03-03T21:43:34.656Z,62.97
2018-03-03T21:46:03.142Z,65.07
2018-03-03T21:48:31.719Z,64.57
2018-03-03T21:51:00.181Z,62.73
2018-03-03T21:53:27.907Z,62.83
2018-03-03T21:55:56.343Z,61.83
2018-03-03T21:58:24.046Z,60.17
2018-03-03T22:00:51.737Z,68.60
2018-03-03T22:03:19.369Z,61.93
2018-03-03T22:05:47.104Z,58.13
2018-03-03T22:08:14.939Z,61.60
2018-03-03T22:10:42.577Z,61.17
2018-03-03T22:13:10.312Z,56.83
2018-03-03T22:15:38.017Z,60.10
2018-03-03T22:18:06.086Z,59.10
2018-03-03T22:20:33.799Z,58.70
2018-03-03T22:23:01.523Z,58.20
2018-03-03T22:25:29.322Z,56.43
2018-03-03T22:27:57.065Z,59.97
2018-03-03T22:30:25.491Z,60.07
2018-03-03T22:32:53.200Z,60.13
2018-03-03T22:35:21.710Z,58.37
2018-03-03T22:37:49.479Z,61.43
2018-03-03T22:40:17.248Z,58.07
2018-03-03T22:42:45.143Z,60.00
2018-03-03T22:45:13.617Z,60.90
2018-03-03T22:47:41.330Z,59.63
2018-03-03T22:50:10.454Z,59.67
2018-03-03T22:52:38.745Z,61.57
2018-03-03T22:55:06.459Z,63.40
2018-03-03T22:57:34.981Z,63.13
2018-03-03T23:00:02.704Z,61.53
2018-03-03T23:02:30.384Z,60.60
2018-03-03T23:04:59.045Z,60.37
2018-03-03T23:07:26.708Z,63.20
2018-03-03T23:09:54.371Z,64.53
2018-03-03T23:12:22.788Z,59.93
2018-03-03T23:14:50.453Z,61.20
2018-03-03T23:17:18.123Z,60.60
2018-03-03T23:19:45.884Z,63.67
2018-03-03T23:22:13.652Z,62.03
2018-03-03T23:24:41.403Z,61.37
2018-03-03T23:27:09.054Z,64.27
2018-03-03T23:29:36.724Z,66.17
2018-03-03T23:32:04.427Z,66.90
2018-03-03T23:34:32.065Z,61.87
2018-03-03T23:36:59.750Z,59.60
2018-03-03T23:39:27.420Z,60.93
2018-03-03T23:41:55.105Z,63.63
2018-03-03T23:44:23.606Z,59.77
2018-03-03T23:46:51.249Z,60.87
2018-03-03T23:49:19.690Z,62.17
2018-03-03T23:51:47.322Z,63.07
2018-03-03T23:54:15.013Z,61.13
2018-03-03T23:56:42.760Z,60.80
2018-03-03T23:59:11.281Z,59.40
